Time;durP1;ratioP1;P1;durP2;ratioP2;P2;SDS_P1;SDS_P2;PMS_P1;PMS_P2;Temp;Humidity;BMP_temperature;BMP_pressure;BME280_temperature;BME280_humidity;BME280_pressure;Samples;Min_cycle;Max_cycle;Signal;HPM_P1;HPM_P2
2022/06/01 00:02:28;;;;;;;5.67;2.70;;;;;;;12.68;86.41;100159.05;3671094;79;99279;-83
2022/06/01 00:07:29;;;;;;;4.90;3.17;;;;;;;12.66;86.24;100156.70;3663953;79;26505;-84
2022/06/01 00:12:34;;;;;;;5.90;3.50;;;;;;;12.66;86.95;100147.62;3660494;79;99143;-84
2022/06/01 00:17:34;;;;;;;5.20;2.90;;;;;;;12.68;87.41;100136.38;3662654;80;99309;-84
2022/06/01 00:22:36;;;;;;;6.40;2.93;;;;;;;12.71;88.42;100151.37;3653569;79;98910;-84
2022/06/01 00:27:37;;;;;;;5.05;2.77;;;;;;;12.70;87.90;100168.52;3692158;78;99162;-83
2022/06/01 00:32:39;;;;;;;5.13;3.10;;;;;;;12.69;86.65;100164.19;3698308;78;99058;-83
2022/06/01 00:37:40;;;;;;;5.97;3.50;;;;;;;12.63;87.10;100140.92;3696215;78;26572;-84
2022/06/01 00:42:44;;;;;;;5.27;3.20;;;;;;;12.57;88.51;100119.63;3691041;78;99034;-84
2022/06/01 00:47:46;;;;;;;6.05;3.45;;;;;;;12.55;88.36;100115.91;3693439;78;99056;-84
2022/06/01 00:52:52;;;;;;;5.80;3.27;;;;;;;12.55;88.96;100122.81;3680437;79;98935;-85
2022/06/01 00:58:01;;;;;;;5.42;3.55;;;;;;;12.58;88.44;100127.52;3698599;79;99495;-85
2022/06/01 01:03:06;;;;;;;5.78;3.40;;;;;;;12.60;88.18;100135.41;3690163;78;99022;-84
2022/06/01 01:08:09;;;;;;;6.40;3.37;;;;;;;12.62;88.19;100139.94;3705013;78;31686;-85
2022/06/01 01:13:14;;;;;;;5.87;3.55;;;;;;;12.61;87.76;100125.36;3696443;78;99251;-85
2022/06/01 01:18:17;;;;;;;8.40;3.90;;;;;;;12.61;88.12;100128.70;3699580;78;98671;-85
2022/06/01 01:23:26;;;;;;;8.13;3.92;;;;;;;12.60;87.77;100116.86;3662015;79;99420;-85
2022/06/01 01:28:28;;;;;;;7.55;3.80;;;;;;;12.49;87.92;100109.19;3677347;79;99257;-85
2022/06/01 01:33:30;;;;;;;7.13;3.43;;;;;;;12.56;87.98;100130.48;3630275;79;99232;-85
2022/06/01 01:39:01;;;;;;;7.05;3.98;;;;;;;12.53;87.55;100113.36;3665919;79;99181;-85
2022/06/01 01:44:25;;;;;;;5.40;3.50;;;;;;;12.49;87.37;100123.60;3661711;80;98958;-84
2022/06/01 01:49:30;;;;;;;6.42;3.60;;;;;;;12.45;87.73;100133.27;3667158;80;98478;-84
2022/06/01 01:55:16;;;;;;;6.60;3.62;;;;;;;12.43;87.16;100119.06;3675540;79;98399;-85
2022/06/01 02:00:36;;;;;;;6.40;3.80;;;;;;;12.38;86.75;100122.22;3669029;80;98987;-84
2022/06/01 02:16:40;;;;;;;11.43;6.80;;;;;;;12.21;88.96;100203.64;3674028;80;99406;-85
2022/06/01 02:21:41;;;;;;;13.37;8.50;;;;;;;12.14;91.82;100202.23;3659352;79;99483;-87
2022/06/01 02:26:42;;;;;;;10.63;7.07;;;;;;;12.14;90.94;100209.94;3670476;79;99464;-86
2022/06/01 02:31:44;;;;;;;11.83;7.37;;;;;;;12.15;91.21;100182.55;3665313;80;99303;-87
2022/06/01 02:36:46;;;;;;;12.37;7.72;;;;;;;12.19;91.33;100179.78;3668915;79;99345;-86
2022/06/01 02:47:07;;;;;;;10.72;6.87;;;;;;;12.22;91.53;100172.11;3670075;80;99282;-86
2022/06/01 02:52:08;;;;;;;10.23;6.05;;;;;;;12.24;91.99;100157.31;3665310;79;99402;-86
2022/06/01 02:57:09;;;;;;;12.53;7.12;;;;;;;12.23;91.31;100153.79;3672686;78;99456;-86
2022/06/01 03:02:10;;;;;;;10.82;7.45;;;;;;;12.27;91.41;100147.66;3669322;79;98744;-86
2022/06/01 03:07:12;;;;;;;9.70;6.33;;;;;;;12.28;91.73;100141.56;3672804;79;99158;-86
2022/06/01 03:12:13;;;;;;;12.40;7.23;;;;;;;12.32;91.22;100131.31;3662418;79;99085;-85
2022/06/01 03:17:15;;;;;;;11.70;7.47;;;;;;;12.36;91.66;100123.80;3666875;79;99651;-85
2022/06/01 03:22:16;;;;;;;13.70;8.27;;;;;;;12.30;93.54;100093.07;3665994;80;99513;-85
2022/06/01 03:27:17;;;;;;;14.10;9.17;;;;;;;12.22;96.55;100068.03;3677662;78;99330;-85
2022/06/01 03:32:18;;;;;;;15.30;9.60;;;;;;;12.23;95.43;100112.98;3688339;79;99107;-86
2022/06/01 03:37:19;;;;;;;13.77;10.30;;;;;;;12.24;95.80;100124.20;3695006;78;99192;-84
2022/06/01 03:42:20;;;;;;;14.20;10.40;;;;;;;12.27;96.04;100140.75;3694035;79;99386;-85
2022/06/01 03:47:21;;;;;;;17.10;11.10;;;;;;;12.27;96.04;100140.75;3695996;79;99673;-85
2022/06/01 03:52:22;;;;;;;12.78;9.13;;;;;;;12.27;95.59;100133.09;3692245;78;99933;-85
2022/06/01 03:57:23;;;;;;;12.47;8.77;;;;;;;12.30;95.63;100131.70;3704318;79;99358;-85
2022/06/01 04:02:23;;;;;;;12.43;8.60;;;;;;;12.34;95.73;100129.73;3689261;78;98861;-85
2022/06/01 04:07:25;;;;;;;12.20;9.23;;;;;;;12.39;95.29;100134.86;3704985;78;99148;-86
2022/06/01 04:12:27;;;;;;;11.20;7.87;;;;;;;12.39;96.11;100126.58;3692453;78;99230;-85
2022/06/01 04:17:28;;;;;;;13.30;8.70;;;;;;;12.42;95.43;100116.11;3701518;79;99433;-85
2022/06/01 04:22:29;;;;;;;12.77;7.73;;;;;;;12.52;95.30;100102.09;3674757;78;98983;-85
2022/06/01 04:27:30;;;;;;;15.83;9.87;;;;;;;12.60;95.01;100107.80;3692870;79;99561;-86
2022/06/01 04:32:32;;;;;;;14.63;10.23;;;;;;;12.64;94.27;100113.51;3687961;78;99540;-85
2022/06/01 04:37:34;;;;;;;15.77;11.50;;;;;;;12.75;94.63;100116.26;3685246;78;31036;-86
2022/06/01 04:42:35;;;;;;;16.62;11.73;;;;;;;12.82;95.87;100108.72;3695698;79;99389;-86
2022/06/01 04:47:36;;;;;;;15.47;11.90;;;;;;;12.90;96.17;100121.33;3693821;78;99552;-87
2022/06/01 04:52:37;;;;;;;16.73;11.47;;;;;;;12.99;96.19;100120.35;3686972;78;99890;-86
2022/06/01 04:57:39;;;;;;;15.27;11.33;;;;;;;13.10;96.39;100127.20;3697814;78;98992;-86
2022/06/01 05:02:40;;;;;;;14.63;9.95;;;;;;;13.23;96.13;100117.27;3628894;80;99592;-87
2022/06/01 05:07:41;;;;;;;14.93;11.27;;;;;;;13.37;95.92;100112.48;3634048;80;31059;-86
2022/06/01 05:12:42;;;;;;;14.15;10.85;;;;;;;13.55;96.41;100121.45;3670129;79;99370;-86
2022/06/01 05:17:43;;;;;;;15.03;10.83;;;;;;;13.78;96.35;100115.37;3667290;79;99237;-83
2022/06/01 05:22:44;;;;;;;12.03;9.20;;;;;;;14.14;96.56;100105.61;3637929;79;99510;-81
2022/06/01 05:27:45;;;;;;;14.80;9.67;;;;;;;14.55;95.97;100108.61;3669328;79;99440;-81
2022/06/01 05:32:46;;;;;;;11.53;8.68;;;;;;;15.10;94.83;100103.62;3652185;79;99060;-82
2022/06/01 05:37:47;;;;;;;11.38;8.43;;;;;;;15.62;93.67;100104.95;3646723;80;29135;-81
2022/06/01 05:42:47;;;;;;;15.18;8.93;;;;;;;16.19;91.96;100102.08;3660309;79;99578;-81
2022/06/01 05:47:48;;;;;;;10.60;7.72;;;;;;;16.74;91.09;100108.63;3666001;79;99271;-82
2022/06/01 05:52:49;;;;;;;13.68;8.08;;;;;;;17.37;89.17;100110.72;3668408;79;99289;-81
2022/06/01 05:57:50;;;;;;;10.88;8.10;;;;;;;17.70;86.25;100113.19;3652741;79;99384;-82
2022/06/01 06:02:51;;;;;;;12.45;7.92;;;;;;;18.23;85.83;100107.74;3670563;79;99299;-81
2022/06/01 06:07:52;;;;;;;10.70;8.30;;;;;;;18.63;81.70;100113.31;3671840;79;32561;-82
2022/06/01 06:12:53;;;;;;;14.05;8.78;;;;;;;18.93;81.89;100114.27;3665542;80;99535;-82
2022/06/01 06:17:54;;;;;;;12.05;7.58;;;;;;;19.35;79.68;100130.59;3667361;80;99440;-81
2022/06/01 06:22:55;;;;;;;9.63;7.62;;;;;;;19.68;79.31;100129.20;3675832;79;99292;-81
2022/06/01 06:27:56;;;;;;;10.10;7.87;;;;;;;20.06;77.64;100138.37;3672791;79;98033;-81
2022/06/01 06:32:57;;;;;;;14.40;6.80;;;;;;;20.43;75.74;100136.81;3636131;80;99305;-81
2022/06/01 06:37:58;;;;;;;9.45;5.50;;;;;;;20.57;73.33;100132.91;3676762;79;26316;-81
2022/06/01 06:42:59;;;;;;;9.45;6.47;;;;;;;20.87;72.70;100144.83;3654187;79;98994;-82
2022/06/01 06:48:00;;;;;;;8.78;5.80;;;;;;;21.12;70.66;100152.37;3662420;80;98967;-82
2022/06/01 06:53:01;;;;;;;10.03;5.42;;;;;;;21.24;69.51;100162.72;3532813;82;99347;-81
2022/06/01 06:58:01;;;;;;;8.05;4.70;;;;;;;21.12;68.24;100153.77;3569921;81;99419;-81
2022/06/01 07:03:04;;;;;;;9.00;5.53;;;;;;;21.00;67.39;100170.79;3557889;82;99158;-81
2022/06/01 07:08:06;;;;;;;11.95;5.62;;;;;;;20.68;66.24;100172.48;3575344;81;25832;-81
2022/06/01 07:13:07;;;;;;;9.53;6.30;;;;;;;20.48;66.07;100167.77;3567193;81;99307;-81
2022/06/01 07:18:08;;;;;;;9.05;5.78;;;;;;;20.38;66.89;100170.92;3540330;81;99025;-80
2022/06/01 07:23:09;;;;;;;8.90;5.75;;;;;;;20.39;66.55;100168.28;3662709;80;99205;-80
2022/06/01 07:28:10;;;;;;;9.28;6.17;;;;;;;20.30;66.40;100157.79;3677033;80;99246;-80
2022/06/01 07:33:11;;;;;;;7.90;5.13;;;;;;;20.28;65.99;100165.06;3669474;80;99215;-80
2022/06/01 07:43:32;;;;;;;9.70;5.75;;;;;;;19.81;65.71;100177.48;3665574;79;98788;-80
2022/06/01 07:48:33;;;;;;;11.23;6.73;;;;;;;19.65;66.12;100172.59;3664685;79;99124;-81
2022/06/01 07:53:34;;;;;;;10.48;5.40;;;;;;;19.55;65.99;100171.68;3660900;79;99393;-80
2022/06/01 07:58:36;;;;;;;9.63;6.40;;;;;;;19.18;66.64;100170.16;3678681;79;99324;-80
2022/06/01 08:03:37;;;;;;;9.70;5.63;;;;;;;19.18;66.64;100170.16;3661066;80;99203;-80
2022/06/01 08:08:38;;;;;;;7.08;5.08;;;;;;;19.33;66.12;100193.06;3669415;80;99404;-79
2022/06/01 08:13:39;;;;;;;9.70;5.13;;;;;;;19.20;66.16;100191.41;3665491;79;98957;-79
2022/06/01 08:18:39;;;;;;;8.83;6.10;;;;;;;19.37;67.37;100200.73;3661983;79;99206;-80
2022/06/01 08:23:40;;;;;;;8.17;5.43;;;;;;;19.50;66.23;100221.70;3643324;79;98822;-80
2022/06/01 08:28:41;;;;;;;10.53;6.30;;;;;;;19.63;66.71;100219.72;3662586;79;99247;-80
2022/06/01 08:33:42;;;;;;;9.93;6.47;;;;;;;20.12;66.45;100221.06;3653078;79;99337;-79
2022/06/01 08:38:43;;;;;;;6.42;4.70;;;;;;;20.39;64.84;100222.80;3659728;79;99212;-79
2022/06/01 08:43:55;;;;;;;7.70;4.78;;;;;;;20.46;63.44;100225.36;3578394;80;98565;-80
2022/06/01 08:49:00;;;;;;;7.62;5.28;;;;;;;20.79;63.01;100212.06;3584608;80;99095;-80
2022/06/01 08:54:01;;;;;;;9.40;5.40;;;;;;;21.26;61.32;100219.05;3583979;80;99079;-79
2022/06/01 08:59:32;;;;;;;8.78;5.12;;;;;;;21.49;61.03;100224.99;3534318;81;99172;-80
2022/06/01 09:04:50;;;;;;;9.53;5.42;;;;;;;21.89;60.64;100216.70;3585120;80;99206;-79
2022/06/01 09:10:17;;;;;;;8.35;4.90;;;;;;;22.36;58.38;100227.05;3517432;81;98798;-80
2022/06/01 09:15:22;;;;;;;7.72;5.00;;;;;;;21.92;57.38;100236.81;3643492;80;99384;-79
2022/06/01 09:25:53;;;;;;;7.33;4.90;;;;;;;21.92;58.54;100244.61;3663658;79;98467;-79
2022/06/01 09:31:08;;;;;;;7.05;3.42;;;;;;;22.39;58.36;100232.52;3661824;79;99426;-80
2022/06/01 09:36:15;;;;;;;5.50;3.50;;;;;;;22.66;54.63;100247.31;3657882;79;98919;-80
2022/06/01 09:41:36;;;;;;;6.65;3.67;;;;;;;22.48;55.03;100246.62;3647087;79;99181;-79
2022/06/01 09:46:56;;;;;;;6.22;3.27;;;;;;;22.91;54.86;100244.23;3661113;79;99119;-78
2022/06/01 09:52:08;;;;;;;6.05;3.22;;;;;;;23.55;52.83;100236.80;3658139;79;99035;-78
2022/06/01 09:57:21;;;;;;;6.15;2.95;;;;;;;24.31;53.85;100248.53;3667435;79;99268;-78
2022/06/01 10:07:49;;;;;;;3.85;2.67;;;;;;;24.15;48.70;100259.38;3670258;80;98982;-80
2022/06/01 10:12:58;;;;;;;7.20;3.15;;;;;;;23.76;49.95;100256.92;3635602;80;99119;-78
2022/06/01 10:18:06;;;;;;;5.97;3.40;;;;;;;23.56;49.82;100265.69;3671230;79;98768;-78
2022/06/01 10:23:24;;;;;;;5.92;3.30;;;;;;;23.38;50.13;100264.30;3668276;79;98998;-78
2022/06/01 10:28:41;;;;;;;6.15;3.50;;;;;;;23.00;48.63;100261.87;3662487;79;99101;-78
2022/06/01 10:33:56;;;;;;;10.45;3.50;;;;;;;22.96;49.70;100254.24;3646695;80;98793;-79
2022/06/01 10:39:12;;;;;;;4.97;2.80;;;;;;;23.16;49.29;100250.99;3665508;80;99011;-78
2022/06/01 10:44:27;;;;;;;5.92;3.10;;;;;;;22.95;48.65;100254.06;3601399;80;98461;-78
2022/06/01 10:49:46;;;;;;;4.27;2.37;;;;;;;23.19;49.51;100246.66;3660100;80;98736;-78
2022/06/01 10:55:15;;;;;;;3.02;2.12;;;;;;;23.48;47.80;100246.20;3651878;80;98342;-78
2022/06/01 11:00:21;;;;;;;4.22;2.55;;;;;;;23.56;47.76;100251.03;3661605;80;98575;-79
2022/06/01 11:05:50;;;;;;;3.70;2.17;;;;;;;23.60;48.05;100248.05;3542502;82;98846;-79
2022/06/01 11:11:21;;;;;;;4.85;2.58;;;;;;;23.67;48.09;100242.11;3586355;79;99219;-78
2022/06/01 11:17:02;;;;;;;7.17;2.60;;;;;;;23.74;48.26;100238.36;3659956;79;99198;-78
2022/06/01 11:22:32;;;;;;;4.47;2.58;;;;;;;23.75;47.42;100240.55;3666342;80;98850;-78
2022/06/01 11:27:57;;;;;;;4.55;2.65;;;;;;;23.58;47.01;100239.30;3536879;82;99256;-79
2022/06/01 11:33:16;;;;;;;5.20;2.90;;;;;;;23.41;48.00;100237.45;3598920;80;99172;-78
2022/06/01 11:38:34;;;;;;;5.83;2.45;;;;;;;23.30;47.23;100232.92;3563787;82;33409;-78
2022/06/01 11:43:58;;;;;;;3.90;2.35;;;;;;;23.17;47.39;100233.69;3563193;81;99136;-78
2022/06/01 11:49:16;;;;;;;6.33;2.67;;;;;;;23.27;46.85;100240.11;3663927;79;98792;-78
2022/06/01 11:54:35;;;;;;;5.97;2.50;;;;;;;23.05;47.11;100238.03;3656034;79;98786;-78
2022/06/01 11:59:47;;;;;;;4.20;2.12;;;;;;;23.22;48.22;100226.05;3669433;79;99259;-78
2022/06/01 12:05:08;;;;;;;6.28;2.50;;;;;;;23.32;48.50;100228.25;3651127;79;99176;-79
2022/06/01 12:10:23;;;;;;;3.77;2.35;;;;;;;23.19;48.28;100235.42;3670963;78;98911;-79
2022/06/01 12:15:40;;;;;;;;;;;;;;;23.17;48.72;100242.72;3667198;78;99024;-78
2022/06/01 12:20:46;;;;;;;4.03;2.58;;;;;;;23.16;48.47;100230.69;3667270;79;26483;-77
2022/06/01 12:31:26;;;;;;;6.42;3.45;;;;;;;22.82;48.36;100237.19;3660934;79;98916;-79
2022/06/01 12:36:32;;;;;;;6.28;2.98;;;;;;;22.44;48.08;100245.18;3660350;80;99015;-77
2022/06/01 12:41:36;;;;;;;5.55;2.83;;;;;;;22.23;48.39;100261.44;3654422;79;99059;-78
2022/06/01 12:46:41;;;;;;;7.78;3.55;;;;;;;21.77;48.65;100263.80;3650518;79;99044;-80
2022/06/01 12:51:43;;;;;;;7.30;3.00;;;;;;;21.39;52.16;100283.55;3607297;80;99266;-80
2022/06/01 12:56:49;;;;;;;5.28;2.58;;;;;;;21.03;53.63;100289.42;3614827;80;32955;-79
2022/06/01 13:01:55;;;;;;;6.22;2.50;;;;;;;20.54;53.24;100300.17;3600079;80;98920;-79
2022/06/01 13:06:57;;;;;;;4.55;2.10;;;;;;;19.82;53.57;100285.17;3601041;80;99044;-80
2022/06/01 13:12:03;;;;;;;4.37;2.47;;;;;;;19.41;55.78;100245.28;3586954;79;98812;-80
2022/06/01 13:17:15;;;;;;;4.58;2.12;;;;;;;19.34;56.92;100245.48;3550135;81;99104;-81
2022/06/01 13:22:22;;;;;;;3.85;1.95;;;;;;;19.21;58.24;100248.78;3636077;79;98860;-80
2022/06/01 13:27:24;;;;;;;4.80;1.92;;;;;;;19.14;57.34;100250.37;3655620;79;98846;-80
2022/06/01 13:32:33;;;;;;;4.25;2.37;;;;;;;18.96;57.21;100242.45;3640810;79;98778;-81
2022/06/01 13:37:39;;;;;;;6.12;2.80;;;;;;;18.73;57.27;100209.20;3656945;79;98913;-79
2022/06/01 13:42:51;;;;;;;4.78;2.37;;;;;;;18.51;59.10;100220.70;3656257;80;98927;-81
2022/06/01 13:47:57;;;;;;;5.47;2.27;;;;;;;18.55;60.23;100214.45;3663864;78;98873;-77
2022/06/01 13:53:06;;;;;;;3.50;1.82;;;;;;;18.62;58.74;100211.48;3659239;80;99102;-76
2022/06/01 13:58:12;;;;;;;2.83;1.60;;;;;;;18.86;59.29;100214.86;3670697;80;98814;-77
2022/06/01 14:03:22;;;;;;;3.50;1.60;;;;;;;19.17;58.53;100219.58;3656410;80;98975;-77
2022/06/01 14:08:37;;;;;;;3.65;1.70;;;;;;;19.41;56.07;100215.34;3668757;80;32928;-80
2022/06/01 14:13:44;;;;;;;5.30;1.70;;;;;;;19.48;55.03;100215.16;3645071;80;98919;-79
2022/06/01 14:18:59;;;;;;;4.47;1.87;;;;;;;19.73;54.65;100215.84;3665077;80;98962;-77
2022/06/01 14:23:59;;;;;;;3.35;1.90;;;;;;;19.91;53.65;100221.07;3663922;80;98725;-77
2022/06/01 14:29:00;;;;;;;3.23;1.70;;;;;;;19.92;52.93;100220.44;3664984;80;98874;-78
2022/06/01 14:34:02;;;;;;;2.23;1.70;;;;;;;20.00;52.71;100218.38;3663176;79;99199;-78
2022/06/01 14:39:04;;;;;;;3.00;1.90;;;;;;;20.16;52.73;100217.55;3673311;80;98945;-78
2022/06/01 14:44:10;;;;;;;4.30;2.13;;;;;;;20.42;52.56;100216.30;3661276;79;98917;-78
2022/06/01 14:49:13;;;;;;;6.10;2.30;;;;;;;20.63;51.79;100210.01;3669364;80;98668;-78
2022/06/01 14:54:14;;;;;;;5.03;2.17;;;;;;;20.88;51.27;100200.94;3661971;79;98561;-78
2022/06/01 14:59:15;;;;;;;3.73;1.73;;;;;;;21.08;50.17;100202.87;3668892;80;99197;-78
2022/06/01 15:04:26;;;;;;;2.90;1.73;;;;;;;21.02;49.04;100208.88;3666805;79;99095;-79
2022/06/01 15:09:28;;;;;;;3.33;1.65;;;;;;;20.98;48.43;100198.42;3667181;79;99294;-79
2022/06/01 15:14:29;;;;;;;3.25;1.47;;;;;;;21.13;48.65;100196.70;3665460;80;98590;-78
2022/06/01 15:19:36;;;;;;;4.07;1.80;;;;;;;21.37;49.73;100190.05;3675970;80;98926;-79
2022/06/01 15:24:37;;;;;;;4.00;1.72;;;;;;;21.47;48.14;100191.05;3659017;79;98814;-79
2022/06/01 15:40:17;;;;;;;2.62;1.50;;;;;;;21.82;47.40;100179.16;3661202;80;98819;-78
2022/06/01 15:45:18;;;;;;;4.77;1.80;;;;;;;21.75;48.04;100181.59;3667561;80;98840;-77
2022/06/01 15:50:19;;;;;;;2.92;1.40;;;;;;;21.75;48.60;100187.20;3668522;80;32964;-77
2022/06/01 15:55:21;;;;;;;5.08;1.20;;;;;;;21.74;44.44;100191.25;3652288;80;98677;-77
2022/06/01 16:00:24;;;;;;;4.13;1.20;;;;;;;21.73;42.16;100177.09;3669120;79;98610;-78
2022/06/01 16:05:25;;;;;;;2.23;1.20;;;;;;;21.68;41.84;100177.67;3660011;80;99170;-79
2022/06/01 16:10:26;;;;;;;4.30;1.35;;;;;;;21.51;41.55;100179.70;3670447;80;99242;-80
2022/06/01 16:15:27;;;;;;;2.60;1.30;;;;;;;21.39;41.61;100180.56;3671668;79;98897;-78
2022/06/01 16:20:30;;;;;;;6.08;1.40;;;;;;;21.33;42.02;100182.39;3667675;80;32021;-79
2022/06/01 16:25:32;;;;;;;4.00;1.10;;;;;;;21.34;41.29;100179.14;3658807;80;98753;-79
2022/06/01 16:30:33;;;;;;;2.97;1.53;;;;;;;21.27;41.01;100182.81;3652058;79;98702;-78
2022/06/01 16:35:34;;;;;;;3.80;1.53;;;;;;;21.13;41.24;100187.51;3527762;81;98820;-79
2022/06/01 16:40:35;;;;;;;2.15;1.42;;;;;;;20.94;40.79;100194.20;3593220;79;98827;-78
2022/06/01 16:45:38;;;;;;;3.60;1.67;;;;;;;20.76;41.00;100194.00;3657391;80;99241;-79
2022/06/01 16:50:39;;;;;;;3.55;1.27;;;;;;;20.60;42.81;100216.52;3658050;80;33035;-80
2022/06/01 16:55:43;;;;;;;3.70;1.90;;;;;;;20.43;45.26;100258.42;3657244;79;98786;-79
2022/06/01 17:00:46;;;;;;;5.15;1.90;;;;;;;20.03;47.76;100271.98;3657221;79;98642;-79
2022/06/01 17:05:47;;;;;;;4.12;1.70;;;;;;;19.62;49.54;100272.61;3673950;79;98906;-78
2022/06/01 17:10:48;;;;;;;2.93;1.53;;;;;;;19.16;51.31;100298.14;3596013;80;98765;-78
2022/06/01 17:15:50;;;;;;;1.67;1.00;;;;;;;18.85;51.95;100310.89;3565242;81;98863;-79
2022/06/01 17:20:52;;;;;;;2.23;1.03;;;;;;;18.36;52.54;100293.94;3543765;82;98712;-79
2022/06/01 17:25:53;;;;;;;3.77;1.12;;;;;;;18.13;53.21;100315.69;3584488;80;98553;-78
2022/06/01 17:30:54;;;;;;;2.53;1.00;;;;;;;17.81;53.52;100329.48;3670002;78;105278;-78
2022/06/01 17:35:55;;;;;;;2.93;1.00;;;;;;;17.64;54.05;100328.42;3685741;78;99342;-79
2022/06/01 17:40:57;;;;;;;2.40;1.43;;;;;;;17.42;54.58;100332.81;3674712;79;99135;-78
2022/06/01 17:45:58;;;;;;;3.77;1.20;;;;;;;17.22;55.17;100350.82;3578764;80;99280;-79
2022/06/01 17:51:00;;;;;;;2.50;1.10;;;;;;;17.04;55.71;100350.94;3655062;80;98976;-79
2022/06/01 17:56:05;;;;;;;3.57;1.50;;;;;;;16.89;56.37;100356.56;3660945;80;28496;-79
2022/06/01 18:01:06;;;;;;;2.00;1.15;;;;;;;16.77;56.94;100356.53;3671100;79;98856;-78
2022/06/01 18:06:09;;;;;;;3.13;1.20;;;;;;;16.68;57.15;100358.27;3573683;80;98912;-79
2022/06/01 18:11:14;;;;;;;4.50;1.75;;;;;;;16.59;57.50;100358.80;3666415;79;98947;-79
2022/06/01 18:16:29;;;;;;;2.10;1.27;;;;;;;16.44;57.82;100356.02;3654098;80;98875;-78
2022/06/01 18:21:31;;;;;;;2.90;1.32;;;;;;;16.29;58.31;100350.44;3646968;79;98784;-79
2022/06/01 18:26:32;;;;;;;2.97;1.30;;;;;;;16.19;58.66;100340.25;3656080;79;27211;-78
2022/06/01 18:31:34;;;;;;;2.50;1.20;;;;;;;16.07;59.12;100337.27;3637182;80;99079;-79
2022/06/01 18:36:36;;;;;;;2.30;1.35;;;;;;;15.98;59.73;100328.02;3652809;80;98687;-79
2022/06/01 18:41:38;;;;;;;3.70;1.57;;;;;;;15.85;60.04;100328.98;3653787;79;99145;-79
2022/06/01 18:46:39;;;;;;;3.40;1.77;;;;;;;15.64;60.65;100328.63;3658280;80;99198;-79
2022/06/01 18:51:48;;;;;;;3.62;1.40;;;;;;;15.47;61.23;100323.30;3650551;79;99204;-79
2022/06/01 18:56:48;;;;;;;3.67;1.57;;;;;;;15.30;61.56;100329.16;3663656;80;32982;-78
2022/06/01 19:01:49;;;;;;;2.37;1.47;;;;;;;15.09;62.18;100339.05;3530453;82;98847;-78
2022/06/01 19:06:55;;;;;;;4.45;1.50;;;;;;;14.92;62.66;100344.15;3658720;80;99026;-78
2022/06/01 19:11:55;;;;;;;5.65;1.67;;;;;;;14.73;63.04;100341.94;3665662;79;98849;-79
2022/06/01 19:16:59;;;;;;;4.80;1.97;;;;;;;14.59;63.63;100348.94;3686113;79;99294;-79
2022/06/01 19:22:05;;;;;;;4.20;1.92;;;;;;;14.41;64.01;100335.81;3652483;79;98530;-79
2022/06/01 19:27:15;;;;;;;6.65;2.70;;;;;;;14.24;65.00;100336.70;3660020;79;99186;-80
2022/06/01 19:32:16;;;;;;;7.37;5.15;;;;;;;14.04;65.89;100351.38;3661867;79;98736;-80
2022/06/01 19:48:01;;;;;;;7.10;3.02;;;;;;;13.41;67.21;100362.63;3662960;79;99098;-80
2022/06/01 19:53:02;;;;;;;5.80;2.90;;;;;;;13.25;68.43;100371.31;3664695;80;98932;-79
2022/06/01 19:58:04;;;;;;;6.08;4.03;;;;;;;13.08;68.09;100376.88;3655466;79;98883;-80
2022/06/01 20:03:04;;;;;;;8.83;4.07;;;;;;;13.00;68.85;100382.98;3654293;79;99098;-84
2022/06/01 20:08:07;;;;;;;5.83;3.60;;;;;;;12.82;69.56;100381.36;3665862;79;31780;-85
2022/06/01 20:13:13;;;;;;;7.33;4.50;;;;;;;12.74;69.40;100386.66;3663006;79;98853;-85
2022/06/01 20:18:17;;;;;;;6.47;4.03;;;;;;;12.65;69.65;100400.84;3654407;79;98844;-85
2022/06/01 20:23:18;;;;;;;8.38;4.03;;;;;;;12.56;70.54;100409.30;3650658;79;98909;-85
2022/06/01 20:28:19;;;;;;;7.77;4.60;;;;;;;12.43;71.11;100408.87;3662774;79;99121;-84
2022/06/01 20:33:20;;;;;;;10.03;4.97;;;;;;;12.35;71.42;100414.75;3663012;79;98916;-84
2022/06/01 20:38:22;;;;;;;9.73;5.03;;;;;;;12.33;71.46;100417.13;3659223;79;31626;-85
2022/06/01 20:43:23;;;;;;;11.80;7.00;;;;;;;12.31;71.71;100418.88;3679455;78;98711;-84
2022/06/01 20:48:24;;;;;;;11.65;6.78;;;;;;;12.26;72.83;100415.72;3613922;81;98859;-85
2022/06/01 20:53:26;;;;;;;14.10;8.30;;;;;;;12.14;72.89;100419.61;3666039;80;98786;-85
2022/06/01 20:58:27;;;;;;;17.20;8.27;;;;;;;12.11;73.92;100419.59;3663575;78;98997;-85
2022/06/01 21:03:28;;;;;;;12.17;7.40;;;;;;;12.06;74.56;100425.48;3670637;80;99267;-85
2022/06/01 21:08:29;;;;;;;10.30;6.23;;;;;;;11.99;74.83;100426.83;3646528;80;31603;-85
2022/06/01 21:13:31;;;;;;;12.37;7.23;;;;;;;11.91;75.08;100430.70;3665754;80;99104;-85
2022/06/01 21:18:33;;;;;;;14.87;5.50;;;;;;;11.87;75.47;100419.66;3676735;80;99358;-86
2022/06/01 21:23:34;;;;;;;10.17;5.73;;;;;;;11.84;74.76;100421.80;3658000;79;98983;-85
2022/06/01 21:28:36;;;;;;;9.73;5.40;;;;;;;11.83;75.42;100435.39;3693035;79;99377;-85
2022/06/01 21:33:39;;;;;;;10.70;5.90;;;;;;;11.82;75.44;100429.67;3680602;79;99160;-85
2022/06/01 21:38:40;;;;;;;10.43;5.90;;;;;;;11.76;76.72;100433.17;3664345;80;33426;-85
2022/06/01 21:43:41;;;;;;;12.17;6.73;;;;;;;11.71;77.25;100431.58;3659863;79;98853;-85
2022/06/01 21:48:42;;;;;;;11.67;6.00;;;;;;;11.66;77.57;100417.38;3666465;79;98865;-85
2022/06/01 21:53:44;;;;;;;15.30;6.40;;;;;;;11.58;77.48;100402.72;3659642;79;99439;-85
2022/06/01 21:58:45;;;;;;;11.03;6.10;;;;;;;11.56;77.86;100391.27;3679960;80;99388;-85
2022/06/01 22:03:46;;;;;;;11.03;6.30;;;;;;;11.57;77.69;100409.99;3671251;79;99053;-85
2022/06/01 22:08:47;;;;;;;12.97;7.37;;;;;;;11.55;77.75;100415.88;3650076;80;31647;-85
2022/06/01 22:13:48;;;;;;;13.78;7.95;;;;;;;11.50;78.71;100407.20;3660585;80;98740;-85
2022/06/01 22:18:51;;;;;;;12.70;7.30;;;;;;;11.46;78.67;100414.64;3669549;80;98730;-85
2022/06/01 22:23:51;;;;;;;16.63;8.77;;;;;;;11.40;79.05;100420.31;3663661;79;99403;-86
2022/06/01 22:28:52;;;;;;;11.33;7.03;;;;;;;11.32;79.11;100421.41;3671138;80;98954;-85
2022/06/01 22:33:53;;;;;;;13.13;6.53;;;;;;;11.24;79.42;100425.30;3673364;80;99377;-86
2022/06/01 22:38:56;;;;;;;12.87;6.63;;;;;;;11.12;79.64;100428.34;3670620;80;31627;-86
2022/06/01 22:44:02;;;;;;;13.00;6.40;;;;;;;11.05;80.21;100424.13;3663729;79;98799;-86
2022/06/01 22:49:05;;;;;;;10.88;6.30;;;;;;;11.01;79.98;100438.47;3661845;79;98893;-86
2022/06/01 22:54:07;;;;;;;10.18;5.92;;;;;;;10.95;80.12;100439.39;3654189;79;99017;-86
2022/06/01 22:59:08;;;;;;;10.35;6.22;;;;;;;10.92;80.01;100439.36;3676212;80;99131;-86
2022/06/01 23:04:08;;;;;;;11.70;6.27;;;;;;;10.77;80.42;100424.67;3663883;79;99410;-86
2022/06/01 23:09:09;;;;;;;13.57;7.73;;;;;;;10.88;81.05;100444.84;3671301;80;98997;-86
2022/06/01 23:14:10;;;;;;;11.40;6.53;;;;;;;10.87;81.50;100435.57;3670725;80;98482;-85
2022/06/01 23:19:11;;;;;;;11.07;6.03;;;;;;;10.85;81.54;100446.18;3677212;79;98928;-85
2022/06/01 23:24:12;;;;;;;10.87;5.80;;;;;;;10.87;81.69;100441.08;3662699;79;98925;-85
2022/06/01 23:29:24;;;;;;;10.17;5.57;;;;;;;10.88;81.95;100439.91;3668907;80;99041;-85
2022/06/01 23:34:36;;;;;;;10.32;5.12;;;;;;;10.88;82.49;100430.27;3661215;79;99262;-85
2022/06/01 23:39:55;;;;;;;9.23;4.85;;;;;;;10.91;82.21;100438.56;3674432;79;98996;-85
2022/06/01 23:45:27;;;;;;;9.85;5.45;;;;;;;10.91;82.46;100428.92;3666468;79;98251;-85
2022/06/01 23:50:39;;;;;;;11.18;5.10;;;;;;;10.99;81.75;100447.68;3657676;79;32924;-85
2022/06/01 23:56:00;;;;;;;11.40;4.57;;;;;;;10.99;81.75;100447.68;3661000;79;98385;-86
